Scroll for more >

River gauges, storages, and weirs in the Murray–Darling Basin

Type Locationsort descending River Water level Flow Volume Release Water temp Salinity Rainfall
River Gauge Albury (Union Bridge) Murray 2.31 m 19/10/2017 6:00 Not measured Not measured Not measured 12.7°C 19/10/2017 6:00 51.7 μS/cm 19/10/2017 6:00 Not measured Full data
River Gauge Balranald Murrumbidgee 1.89 m 19/10/2017 5:45 1410 ML/Day 19/10/2017 5:45 Not measured Not measured 21.4°C 19/10/2017 5:45 159.5 μS/cm 19/10/2017 5:45 Not measured Full data
River Gauge Bandiana Kiewa 2.63 m 19/10/2017 5:45 3261 ML/Day 19/10/2017 5:45 Not measured Not measured 13.6°C 19/10/2017 5:45 444.2 μS/cm 19/10/2017 5:45 Not measured Full data
River Gauge Biggara Murray 0.66 m 19/10/2017 6:00 1025 ML/Day 19/10/2017 6:00 Not measured Not measured 13.9°C 19/10/2017 6:00 35.1 μS/cm 19/10/2017 6:00 0.0 mm 18/10/2017 9:00 Full data
River Gauge Bringenbrong Bridge Murray 1.91 m 19/10/2017 5:45 6583 ML/Day 19/10/2017 5:45 Not measured Not measured Not measured Not measured Not measured Full data
River Gauge Burtundy Darling 0.94 m 19/10/2017 5:45 814 ML/Day 19/10/2017 5:45 Not measured Not measured 24.3°C 19/10/2017 5:45 767.0 μS/cm 19/10/2017 5:45 Not measured Full data
River Gauge Colemans Mitta 0.88 m 19/10/2017 6:30 205 ML/Day 19/10/2017 6:30 Not measured Not measured 12.3°C 19/10/2017 5:45 69.5 μS/cm 19/10/2017 5:45 Not measured Full data
River Gauge Colignan Murray 2.15 m 19/10/2017 5:45 7602 ML/Day 19/10/2017 5:45 Not measured Not measured 22.6°C 19/10/2017 5:45 39.4 μS/cm 19/10/2017 5:45 Not measured Full data
River Gauge Corowa Murray 3.57 m 19/10/2017 6:00 18582 ML/Day 19/10/2017 6:00 Not measured Not measured 15.8°C 19/10/2017 6:00 46.5 μS/cm 19/10/2017 6:00 Not measured Full data
Storage Dartmouth Dam Mitta 477.26 m 19/10/2017 6:30 Not measured 3309 GL 19/10/2017 6:30 Not measured Not measured Not measured Not measured Full data
River Gauge Doctors Point Murray 3.27 m 19/10/2017 6:00 18038 ML/Day 19/10/2017 6:00 Not measured Not measured 12.2°C 19/10/2017 6:00 63.8 μS/cm 19/10/2017 6:00 Not measured Full data
River Gauge Echuca Wharf Murray 87.38 m 25/09/2017 9:00 Not measured Not measured Not measured Not measured Not measured Not measured Full data
River Gauge Edward Escape Wakool 0.59 m 19/10/2017 5:45 403 ML/Day 19/10/2017 5:45 Not measured Not measured 20.6°C 19/10/2017 5:45 27.4 μS/cm 19/10/2017 5:45 Not measured Full data
River Gauge Edward River Offtake Murray 2.4 m 19/10/2017 6:15 1562 ML/Day 19/10/2017 6:15 Not measured Not measured 20.6°C 19/10/2017 5:45 39.5 μS/cm 19/10/2017 5:45 Not measured Full data
Weirs Euston Weir Downstream Murray 43.56 m 19/10/2017 5:45 8080 ML/Day 19/10/2017 5:45 Not measured Not measured 20.5°C 19/10/2017 5:45 109.2 μS/cm 19/10/2017 5:45 Not measured Full data
Weirs Euston Weir Upstream Murray 47.88 m 18/10/2017 7:45 Not measured 41 GL 18/10/2017 7:45 Not measured Not measured Not measured 0.0 mm 17/10/2017 9:00 Full data
River Gauge Flow to South Australia Murray Not measured Not measured Not measured 7317.2 ML/d18/10/2017 7:45 Not measured Not measured Not measured Full data
River Gauge Frenchman Creek Murray 27.42 m 18/10/2017 7:45 Not measured Not measured 2796.9 ML/d18/10/2017 7:45 Not measured Not measured Not measured Full data
River Gauge Gulpa Creek Offtake Murray 2.82 m 19/10/2017 5:45 509 ML/Day 19/10/2017 5:45 Not measured Not measured Not measured Not measured Not measured Full data
River Gauge Hinnomunjie Mitta 1.21 m 19/10/2017 5:45 2202 ML/Day 19/10/2017 5:45 Not measured Not measured 11.4°C 19/10/2017 5:45 17.5 μS/cm 19/10/2017 5:45 0.4 mm 18/10/2017 9:00 Full data
Storage Hume Dam Murray 190.05 m 19/10/2017 6:15 Not measured 2628 GL 19/10/2017 6:15 17500.0 ML/d18/10/2017 8:00 Not measured Not measured 0.0 mm 18/10/2017 9:00 Full data
River Gauge Jingellic Murray 1.9 m 19/10/2017 5:45 6054 ML/Day 19/10/2017 5:45 Not measured Not measured 17.2°C 19/10/2017 5:45 20.7 μS/cm 19/10/2017 5:45 0.0 mm 18/10/2017 9:00 Full data
River Gauge Kerang Loddon 0.58 m 19/10/2017 5:45 744 ML/Day 19/10/2017 5:45 Not measured Not measured 24.8°C 19/10/2017 5:45 148.6 μS/cm 19/10/2017 5:45 Not measured Full data
River Gauge Lake Albert Murray 0.78 m 19/10/2017 5:45 Not measured 277 GL 19/10/2017 5:45 Not measured Not measured Not measured Not measured Full data
River Gauge Lake Alexandrina Murray 0.8 m 19/10/2017 5:45 Not measured 1645 GL 19/10/2017 5:45 Not measured Not measured 626.3 μS/cm 19/10/2017 4:45 Not measured Full data
Storage Lake Victoria Murray 26.56 m 19/10/2017 4:45 Not measured 624 GL 19/10/2017 4:45 Not measured 19.0°C 19/10/2017 4:45 215.4 μS/cm 19/10/2017 4:45 Not measured Full data
Weirs Lock 1 Downstream Murray 0.89 m 19/10/2017 4:45 Not measured Not measured 9462.0 ML/d18/10/2017 7:45 Not measured Not measured Not measured Full data
Weirs Lock 1 Upstream Murray 3.1 m 19/10/2017 4:45 Not measured Not measured Not measured 21.2°C 19/10/2017 4:45 407.3 μS/cm 19/10/2017 4:45 Not measured Full data
Weirs Lock 2 Downstream Murray 3.47 m 19/10/2017 4:45 Not measured Not measured Not measured Not measured Not measured Not measured Full data
Weirs Lock 2 Upstream Murray 6.24 m 19/10/2017 4:45 Not measured Not measured Not measured 21.7°C 19/10/2017 4:45 390.5 μS/cm 19/10/2017 4:45 Not measured Full data
Weirs Lock 3 Downstream Murray 6.56 m 19/10/2017 4:45 Not measured Not measured Not measured Not measured Not measured Not measured Full data
Weirs Lock 3 Upstream Murray 9.8 m 19/10/2017 4:45 Not measured Not measured Not measured Not measured Not measured Not measured Full data
Weirs Lock 4 Downstream Murray 10.71 m 19/10/2017 4:45 Not measured Not measured Not measured Not measured Not measured Not measured Full data
Weirs Lock 4 Upstream Murray 13.21 m 19/10/2017 4:45 Not measured Not measured Not measured Not measured Not measured Not measured Full data
Weirs Lock 5 Downstream Murray 13.44 m 19/10/2017 4:45 Not measured Not measured Not measured Not measured Not measured Not measured Full data
Weirs Lock 5 Upstream Murray 16.39 m 19/10/2017 4:45 Not measured Not measured Not measured 21.7°C 19/10/2017 4:45 226.8 μS/cm 19/10/2017 4:45 Not measured Full data
Weirs Lock 6 Downstream Murray 16.49 m 19/10/2017 4:45 Not measured Not measured Not measured Not measured Not measured Not measured Full data
Weirs Lock 6 Upstream Murray 19.25 m 19/10/2017 4:45 Not measured Not measured Not measured 21.7°C 19/10/2017 4:45 198.4 μS/cm 19/10/2017 4:45 Not measured Full data
Weirs Lock 7 Downstream Murray 20.3 m 19/10/2017 4:45 Not measured Not measured Not measured Not measured Not measured Not measured Full data
Weirs Lock 7 Upstream Murray 22.56 m 19/10/2017 4:45 Not measured Not measured Not measured 21.6°C 19/10/2017 4:45 172.4 μS/cm 19/10/2017 4:45 Not measured Full data
Weirs Lock 8 Upstream Murray 24.9 m 19/10/2017 4:45 Not measured Not measured Not measured 21.5°C 19/10/2017 4:45 176.0 μS/cm 19/10/2017 4:45 Not measured Full data
Weirs Lock 9 Downstream Murray 24.92 m 19/10/2017 4:45 Not measured Not measured Not measured Not measured Not measured Not measured Full data
Weirs Lock 9 Upstream Murray 27.42 m 19/10/2017 4:45 Not measured Not measured Not measured 22.0°C 19/10/2017 4:45 180.4 μS/cm 19/10/2017 4:45 Not measured Full data
River Gauge McCoy Bridge Goulburn 1.46 m 19/10/2017 5:45 898 ML/Day 19/10/2017 5:45 Not measured Not measured 20.7°C 19/10/2017 5:45 95.0 μS/cm 19/10/2017 5:45 Not measured Full data
Storage Menindee Lakes Darling Not measured Not measured 609 GL 18/10/2017 7:45 Not measured Not measured Not measured Not measured Full data
Weirs Mildura Weir downstream Murray 30.97 m 19/10/2017 5:45 Not measured Not measured Not measured 21.6°C 19/10/2017 5:45 145.3 μS/cm 19/10/2017 5:45 Not measured Full data
River Gauge Morgan Downstream Murray Not measured Not measured Not measured 6553.3 ML/d19/10/2017 4:45 Not measured 372.5 μS/cm 19/10/2017 2:45 Not measured Full data
River Gauge Mulwala Canal Murray Not measured Not measured Not measured 4148.9 ML/d18/10/2017 7:45 Not measured Not measured Not measured Full data
River Gauge Mundoo Barrage Murray 0.83 m 18/10/2017 7:45 Not measured Not measured Not measured Not measured Not measured Not measured Full data
River Gauge Murray Bridge Murray 0.71 m 19/10/2017 4:45 Not measured Not measured Not measured 18.9°C 19/10/2017 4:45 450.5 μS/cm 19/10/2017 4:45 Not measured Full data
River Gauge Peechelba Ovens 127.78 m 19/10/2017 4:45 2886 ML/Day 19/10/2017 4:45 Not measured Not measured 18.7°C 19/10/2017 4:45 49.3 μS/cm 19/10/2017 4:45 Not measured Full data
River Gauge Pinegrove Murray 1.25 m 19/10/2017 6:00 423 ML/Day 19/10/2017 6:00 Not measured Not measured 17.0°C 19/10/2017 6:00 99.2 μS/cm 19/10/2017 6:00 0.0 mm 18/10/2017 9:00 Full data
River Gauge Rochester Campaspe 1.77 m 19/10/2017 5:45 116 ML/Day 19/10/2017 5:45 Not measured Not measured 19.3°C 19/10/2017 5:45 564.5 μS/cm 19/10/2017 5:45 0.0 mm 18/10/2017 9:00 Full data
River Gauge Rufus River Murray 20.65 m 18/10/2017 7:45 Not measured Not measured 1975.7 ML/d18/10/2017 7:45 Not measured 215.2 μS/cm 19/10/2017 2:45 Not measured Full data
Weirs Steven's Weir Downstream Wakool 2.43 m 19/10/2017 5:45 2688 ML/Day 19/10/2017 5:45 Not measured Not measured 20.7°C 19/10/2017 5:45 46.0 μS/cm 19/10/2017 5:45 0.0 mm 17/10/2017 9:00 Full data
Weirs Steven's Weir Upstream Wakool 4.8 m 19/10/2017 6:15 Not measured Not measured Not measured Not measured Not measured Not measured Full data
River Gauge Stoney Crossing Murray 1.52 m 19/10/2017 5:45 667 ML/Day 19/10/2017 5:45 Not measured 697.1 ML/d18/10/2017 7:45 21.8°C 19/10/2017 5:45 196.0 μS/cm 19/10/2017 5:45 Not measured Full data
River Gauge Swan Hill Murray 1.3 m 19/10/2017 5:45 6275 ML/Day 19/10/2017 5:45 Not measured Not measured 20.8°C 19/10/2017 5:45 81.6 μS/cm 19/10/2017 5:45 Not measured Full data
River Gauge Tallandoon Mitta 1.57 m 19/10/2017 5:45 960 ML/Day 19/10/2017 5:45 Not measured Not measured 18.1°C 19/10/2017 5:45 39.7 μS/cm 19/10/2017 5:45 Not measured Full data
River Gauge Tauwitchere Barrage Murray 0.83 m 19/10/2017 4:45 Not measured Not measured Not measured Not measured Not measured Not measured Full data
River Gauge Tocumwal Murray 2.98 m 19/10/2017 5:45 14895 ML/Day 19/10/2017 5:45 Not measured Not measured 20.8°C 19/10/2017 5:45 52.0 μS/cm 19/10/2017 5:45 Not measured Full data
River Gauge Torrumbarry Headworks Murray 85.16 m 19/10/2017 5:45 Not measured Not measured 2620.2 ML/d19/10/2017 5:45 Not measured Not measured Not measured Full data
Weirs Torrumbarry Weir Downstream Murray 2.21 m 19/10/2017 5:45 6288 ML/Day 19/10/2017 5:45 Not measured Not measured 19.5°C 19/10/2017 5:45 67.9 μS/cm 19/10/2017 5:45 Not measured Full data
Weirs Torrumbarry Weir Upstream Murray 86.05 m 18/10/2017 7:45 Not measured 37 GL 18/10/2017 7:45 Not measured 18.8°C 18/10/2017 7:45 67.0 μS/cm 18/10/2017 7:45 0.0 mm 17/10/2017 9:00 Full data
River Gauge Wakool Canal Wakool 0.7 m 19/10/2017 5:45 Not measured Not measured 1081.2 ML/d18/10/2017 8:45 Not measured Not measured Not measured Full data
River Gauge Wakool Junction Murray 3.24 m 19/10/2017 5:45 8606 ML/Day 19/10/2017 5:45 Not measured Not measured 21.1°C 19/10/2017 5:45 88.6 μS/cm 19/10/2017 5:45 Not measured Full data
River Gauge Weir 32 Upstream Darling 1.89 m 19/10/2017 5:45 1699 ML/Day 19/10/2017 5:45 Not measured Not measured 22.5°C 19/10/2017 5:45 707.3 μS/cm 19/10/2017 5:45 Not measured Full data
Weirs Wentworth Weir Murray 27.72 m 19/10/2017 5:45 Not measured Not measured 7743.2 ML/d18/10/2017 7:45 Not measured 170.0 μS/cm 18/10/2017 7:45 0.0 mm 17/10/2017 9:00 Full data
River Gauge Wilcania Darling 0.4 m 19/10/2017 5:45 170 ML/Day 19/10/2017 5:45 Not measured Not measured 22.1°C 19/10/2017 5:45 351.6 μS/cm 19/10/2017 5:45 Not measured Full data
River Gauge Yarrawonga Main Channel Murray 123.95 m 19/10/2017 5:45 Not measured Not measured 1650.0 ML/d18/10/2017 7:45 Not measured Not measured Not measured Full data
Weirs Yarrawonga Weir Downstream Murray 2.33 m 19/10/2017 5:45 15076 ML/Day 19/10/2017 5:45 Not measured Not measured 20.2°C 19/10/2017 5:45 57.1 μS/cm 19/10/2017 5:45 Not measured Full data
Weirs Yarrawonga Weir Upstream Murray 124.71 m 19/10/2017 5:45 Not measured Not measured Not measured Not measured Not measured 0.0 mm 18/10/2017 9:00 Full data